Time;durP1;ratioP1;P1;durP2;ratioP2;P2;SDS_P1;SDS_P2;PMS_P1;PMS_P2;Temp;Humidity;BMP_temperature;BMP_pressure;BME280_temperature;BME280_humidity;BME280_pressure;Samples;Min_cycle;Max_cycle;Signal;HPM_P1;HPM_P2
2022/04/27 00:01:24;;;;;;;;;;;;;;;7.45;72.37;98513.44;5031971;28;19941;-64
2022/04/27 00:03:49;;;;;;;;;;;;;;;7.39;72.99;98514.41;5031475;28;19929;-63
2022/04/27 00:06:14;;;;;;;;;;;;;;;7.33;73.00;98517.19;5032122;28;19925;-63
2022/04/27 00:08:40;;;;;;;;;;;;;;;7.24;73.37;98525.47;5032060;28;19933;-63
2022/04/27 00:11:05;;;;;;;;;;;;;;;7.23;73.24;98531.78;5031784;28;19932;-63
2022/04/27 00:13:31;;;;;;;;;;;;;;;7.18;74.21;98528.28;5031257;28;19933;-63
2022/04/27 00:15:56;;;;;;;;;;;;;;;7.16;74.29;98539.03;5032221;28;19925;-62
2022/04/27 00:18:22;;;;;;;;;;;;;;;7.13;74.08;98539.50;5031943;28;19967;-63
2022/04/27 00:20:47;;;;;;;;;;;;;;;7.13;74.80;98543.97;5031572;28;19991;-62
2022/04/27 00:23:13;;;;;;;;;;;;;;;7.11;74.71;98548.69;5031860;28;19975;-64
2022/04/27 00:25:38;;;;;;;;;;;;;;;7.07;74.88;98555.47;5031000;28;20016;-63
2022/04/27 00:28:04;;;;;;;;;;;;;;;7.02;75.54;98551.69;5032057;28;20294;-62
2022/04/27 00:30:30;;;;;;;;;;;;;;;6.99;75.56;98548.72;5031790;28;19925;-64
2022/04/27 00:32:56;;;;;;;;;;;;;;;6.96;75.85;98550.00;5029881;28;20394;-62
2022/04/27 00:35:21;;;;;;;;;;;;;;;6.93;75.84;98554.94;5032073;28;20019;-63
2022/04/27 00:37:47;;;;;;;;;;;;;;;6.88;76.65;98560.09;5031727;28;19960;-64
2022/04/27 00:40:12;;;;;;;;;;;;;;;6.84;76.84;98554.50;5031431;28;19929;-62
2022/04/27 00:42:38;;;;;;;;;;;;;;;6.83;76.45;98558.97;5015649;28;20106;-63
2022/04/27 00:45:03;;;;;;;;;;;;;;;6.83;77.25;98560.81;5031993;28;19932;-63
2022/04/27 00:47:30;;;;;;;;;;;;;;;6.80;77.12;98562.06;5030395;28;20043;-63
2022/04/27 00:49:57;;;;;;;;;;;;;;;6.75;77.02;98556.69;5029999;28;19925;-64
2022/04/27 00:52:23;;;;;;;;;;;;;;;6.73;77.07;98557.94;5029878;28;19929;-63
2022/04/27 00:54:50;;;;;;;;;;;;;;;6.72;77.35;98559.00;5031516;28;19925;-62
2022/04/27 00:57:16;;;;;;;;;;;;;;;6.69;77.88;98562.09;5031338;28;19929;-64
2022/04/27 00:59:41;;;;;;;;;;;;;;;6.68;77.86;98563.13;5030065;28;20306;-62
2022/04/27 01:02:07;;;;;;;;;;;;;;;6.64;78.12;98556.72;5031070;28;19956;-64
2022/04/27 01:04:33;;;;;;;;;;;;;;;6.64;78.49;98561.97;5030699;28;19925;-61
2022/04/27 01:06:58;;;;;;;;;;;;;;;6.60;78.34;98566.91;5030989;28;19929;-63
2022/04/27 01:09:24;;;;;;;;;;;;;;;6.58;78.81;98568.97;5030216;28;20279;-62
2022/04/27 01:11:50;;;;;;;;;;;;;;;6.56;78.15;98566.59;5029826;28;19929;-62
2022/04/27 01:14:15;;;;;;;;;;;;;;;6.53;78.85;98563.59;5015283;28;20019;-63
2022/04/27 01:16:41;;;;;;;;;;;;;;;6.53;78.88;98571.47;5033517;28;20031;-61
2022/04/27 01:19:06;;;;;;;;;;;;;;;6.50;78.62;98570.13;5034053;28;19994;-63
2022/04/27 01:21:33;;;;;;;;;;;;;;;6.45;79.31;98571.84;5033769;28;20365;-62
2022/04/27 01:24:02;;;;;;;;;;;;;;;6.43;79.22;98571.28;5033769;28;19929;-63
2022/04/27 01:26:27;;;;;;;;;;;;;;;6.41;79.22;98576.75;5033536;28;19925;-63
2022/04/27 01:28:53;;;;;;;;;;;;;;;6.41;79.20;98570.69;5033784;28;19936;-62
2022/04/27 01:31:19;;;;;;;;;;;;;;;6.40;79.58;98571.75;5033419;28;20009;-62
2022/04/27 01:33:46;;;;;;;;;;;;;;;6.37;79.24;98570.38;5033410;28;20376;-63
2022/04/27 01:36:15;;;;;;;;;;;;;;;6.30;79.50;98565.22;5034895;28;19932;-63
2022/04/27 01:38:40;;;;;;;;;;;;;;;6.33;79.63;98562.13;5033349;28;20355;-62
2022/04/27 01:41:06;;;;;;;;;;;;;;;6.29;79.46;98565.44;5034819;28;19960;-63
2022/04/27 01:43:33;;;;;;;;;;;;;;;6.26;79.69;98560.63;5033303;28;19929;-62
2022/04/27 01:45:59;;;;;;;;;;;;;;;6.22;80.36;98567.41;5033784;28;19921;-63
2022/04/27 01:48:26;;;;;;;;;;;;;;;6.18;80.01;98561.81;5033410;28;20397;-63
2022/04/27 01:50:51;;;;;;;;;;;;;;;6.19;80.54;98565.22;5033319;28;19964;-62
2022/04/27 01:56:04;;;;;;;;;;;;;;;6.20;80.62;98567.63;5012598;28;20328;-64
2022/04/27 01:58:36;;;;;;;;;;;;;;;6.22;80.46;98567.41;5017483;28;19936;-63
2022/04/27 02:01:01;;;;;;;;;;;;;;;6.20;80.37;98567.63;5033940;28;19925;-59
2022/04/27 02:03:28;;;;;;;;;;;;;;;6.18;80.41;98568.88;5033094;28;19929;-63
2022/04/27 02:05:54;;;;;;;;;;;;;;;6.24;79.87;98570.63;5032837;28;19970;-62
2022/04/27 02:08:22;;;;;;;;;;;;;;;6.23;79.44;98569.78;5032568;28;19937;-63
2022/04/27 02:10:47;;;;;;;;;;;;;;;6.26;80.25;98566.69;5032644;28;19925;-63
2022/04/27 02:13:13;;;;;;;;;;;;;;;6.41;79.91;98570.69;5032793;28;20410;-63
2022/04/27 02:15:39;;;;;;;;;;;;;;;6.66;78.42;98570.47;5033013;28;19947;-62
2022/04/27 02:18:30;;;;;;;;;;;;;;;6.85;77.75;98574.53;5029847;28;20232;-62
2022/04/27 02:20:56;;;;;;;;;;;;;;;6.95;77.56;98560.78;5032647;28;20437;-62
2022/04/27 02:23:22;;;;;;;;;;;;;;;7.23;76.84;98575.78;5034097;28;19929;-63
2022/04/27 02:25:48;;;;;;;;;;;;;;;7.51;75.71;98575.78;5032347;28;19970;-62
2022/04/27 02:28:14;;;;;;;;;;;;;;;7.73;74.27;98580.38;5012630;28;20032;-63
2022/04/27 02:30:40;;;;;;;;;;;;;;;7.72;74.13;98589.31;5032385;28;19929;-64
2022/04/27 02:33:06;;;;;;;;;;;;;;;7.51;74.51;98578.41;5032047;28;19935;-62
2022/04/27 02:35:32;;;;;;;;;;;;;;;7.39;74.90;98590.06;5033792;28;19925;-63
2022/04/27 02:37:57;;;;;;;;;;;;;;;7.24;75.35;98590.59;5032311;28;20425;-62
2022/04/27 02:40:23;;;;;;;;;;;;;;;7.14;75.81;98591.16;5032243;28;19939;-63
2022/04/27 02:42:52;;;;;;;;;;;;;;;7.40;75.38;98595.09;5032126;28;19929;-62
2022/04/27 02:45:17;;;;;;;;;;;;;;;7.99;73.38;98593.97;5033608;28;19925;-63
2022/04/27 02:47:43;;;;;;;;;;;;;;;8.53;70.79;98603.03;5032159;28;19983;-63
2022/04/27 02:52:56;;;;;;;;;;;;;;;9.35;67.93;98595.28;5031758;28;19929;-62
2022/04/27 02:55:31;;;;;;;;;;;;;;;9.72;66.27;98606.78;5033396;28;20027;-63
2022/04/27 02:57:57;;;;;;;;;;;;;;;9.86;65.57;98603.72;5031626;28;20028;-63
2022/04/27 03:00:24;;;;;;;;;;;;;;;10.13;64.76;98604.47;5031749;28;19931;-60
2022/04/27 03:02:50;;;;;;;;;;;;;;;10.31;63.77;98603.31;5031625;28;20373;-62
2022/04/27 03:05:17;;;;;;;;;;;;;;;10.36;63.13;98613.94;5031560;28;19925;-64
2022/04/27 03:07:43;;;;;;;;;;;;;;;10.49;62.93;98612.69;5031257;28;19929;-60
2022/04/27 03:10:09;;;;;;;;;;;;;;;10.51;62.98;98617.75;4982928;28;19977;-62
2022/04/27 03:12:36;;;;;;;;;;;;;;;10.68;61.94;98613.88;5031249;28;19991;-64
2022/04/27 03:15:03;;;;;;;;;;;;;;;10.77;61.85;98616.84;5031972;28;20443;-61
2022/04/27 03:17:29;;;;;;;;;;;;;;;10.90;60.90;98618.22;5014403;28;19936;-62
2022/04/27 03:19:56;;;;;;;;;;;;;;;10.83;61.73;98615.03;5014831;28;19925;-63
2022/04/27 03:22:22;;;;;;;;;;;;;;;10.82;61.71;98616.84;5031472;28;19959;-62
2022/04/27 03:24:48;;;;;;;;;;;;;;;10.90;61.28;98616.38;5015151;28;19975;-63
2022/04/27 03:27:17;;;;;;;;;;;;;;;11.08;61.12;98614.34;5030608;28;19939;-62
2022/04/27 03:29:45;;;;;;;;;;;;;;;11.22;60.35;98614.66;5031791;28;19924;-63
2022/04/27 03:32:11;;;;;;;;;;;;;;;11.31;60.37;98623.69;5030915;28;19925;-63
2022/04/27 03:34:41;;;;;;;;;;;;;;;11.41;59.37;98621.06;5031326;28;19975;-62
2022/04/27 03:37:07;;;;;;;;;;;;;;;11.25;60.11;98619.44;5030695;28;20010;-63
2022/04/27 03:39:34;;;;;;;;;;;;;;;11.62;59.55;98619.28;5014697;28;19932;-64
2022/04/27 03:42:00;;;;;;;;;;;;;;;11.57;58.89;98622.72;5030851;28;19932;-63
2022/04/27 03:44:26;;;;;;;;;;;;;;;11.75;58.96;98631.25;5031383;28;20035;-62
2022/04/27 03:46:53;;;;;;;;;;;;;;;12.07;57.92;98628.38;5030499;28;20028;-63
2022/04/27 03:49:20;;;;;;;;;;;;;;;12.30;56.74;98634.25;5030838;28;19972;-64
2022/04/27 03:51:46;;;;;;;;;;;;;;;12.14;57.43;98642.19;5030354;28;19925;-64
2022/04/27 03:54:12;;;;;;;;;;;;;;;12.13;57.37;98637.94;5014809;28;20023;-63
2022/04/27 03:56:37;;;;;;;;;;;;;;;12.01;57.12;98643.53;5030978;28;19964;-62
2022/04/27 03:59:03;;;;;;;;;;;;;;;11.89;57.28;98635.00;5014330;28;19929;-63
2022/04/27 04:01:29;;;;;;;;;;;;;;;11.79;57.64;98642.91;5030649;28;19932;-63
2022/04/27 04:03:56;;;;;;;;;;;;;;;11.74;57.86;98641.06;5030508;28;19929;-64
2022/04/27 04:06:22;;;;;;;;;;;;;;;11.64;57.53;98633.06;5013824;28;19968;-63
2022/04/27 04:08:47;;;;;;;;;;;;;;;11.73;57.32;98643.97;5031078;28;19964;-63
2022/04/27 04:11:14;;;;;;;;;;;;;;;11.72;57.41;98637.09;5014107;28;19925;-64
2022/04/27 04:14:02;;;;;;;;;;;;;;;11.50;57.61;98637.28;5003387;28;19929;-64
2022/04/27 04:16:58;;;;;;;;;;;;;;;11.56;57.49;98634.41;5021494;28;19925;-64
2022/04/27 04:19:32;;;;;;;;;;;;;;;11.57;57.31;98632.53;5030997;28;20382;-64
2022/04/27 04:22:19;;;;;;;;;;;;;;;11.45;57.11;98640.72;5014082;28;19979;-64
2022/04/27 04:30:31;;;;;;;;;;;;;;;12.22;55.41;98643.53;5030597;28;19933;-63
2022/04/27 04:33:19;;;;;;;;;;;;;;;12.31;55.17;98646.44;5009207;28;19936;-62
2022/04/27 04:35:52;;;;;;;;;;;;;;;12.20;55.19;98653.63;4993086;28;19988;-62
2022/04/27 04:38:19;;;;;;;;;;;;;;;12.31;54.56;98649.09;4976716;28;20463;-63
2022/04/27 04:40:44;;;;;;;;;;;;;;;12.31;54.34;98647.25;4976784;28;20016;-63
2022/04/27 04:43:10;;;;;;;;;;;;;;;12.24;54.27;98649.38;4993302;28;20291;-64
2022/04/27 04:45:40;;;;;;;;;;;;;;;12.05;54.59;98655.19;5009646;28;19925;-62
2022/04/27 04:48:29;;;;;;;;;;;;;;;11.78;55.07;98649.31;5006152;28;19992;-64
2022/04/27 04:51:03;;;;;;;;;;;;;;;11.98;55.25;98643.25;4993728;28;20394;-66
2022/04/27 04:53:52;;;;;;;;;;;;;;;11.97;53.83;98649.63;4993770;28;19984;-64
2022/04/27 04:56:37;;;;;;;;;;;;;;;11.82;54.70;98650.38;4993843;28;20061;-65
2022/04/27 04:59:16;;;;;;;;;;;;;;;11.77;55.11;98645.06;5005006;28;19933;-63
2022/04/27 05:01:42;;;;;;;;;;;;;;;11.75;54.78;98649.81;5013429;28;19925;-64
2022/04/27 05:04:28;;;;;;;;;;;;;;;11.65;54.42;98649.78;5025214;28;19987;-65
2022/04/27 05:07:18;;;;;;;;;;;;;;;11.64;54.91;98649.00;5022598;28;20378;-63
2022/04/27 05:09:46;;;;;;;;;;;;;;;11.50;54.87;98650.56;5035445;28;19976;-63
2022/04/27 05:12:30;;;;;;;;;;;;;;;11.56;54.90;98647.66;5035161;28;19936;-64
2022/04/27 05:15:15;;;;;;;;;;;;;;;11.45;55.36;98653.22;5017391;28;19979;-63
2022/04/27 05:17:54;;;;;;;;;;;;;;;11.46;54.91;98650.28;5033957;28;19929;-65
2022/04/27 05:20:23;;;;;;;;;;;;;;;11.42;53.99;98661.69;5050445;28;20003;-64
2022/04/27 05:23:11;;;;;;;;;;;;;;;11.43;54.06;98661.41;5027621;28;19983;-65
2022/04/27 05:26:03;;;;;;;;;;;;;;;11.43;54.59;98663.28;5032232;28;19929;-65
2022/04/27 05:31:55;;;;;;;;;;;;;;;11.34;53.52;98676.25;5034516;28;19933;-63
2022/04/27 05:34:53;;;;;;;;;;;;;;;11.36;53.98;98669.63;4993469;28;19948;-66
2022/04/27 05:37:51;;;;;;;;;;;;;;;11.35;53.84;98669.88;4980495;28;19941;-63
2022/04/27 05:40:48;;;;;;;;;;;;;;;11.30;52.09;98669.88;4972080;28;20021;-64
2022/04/27 05:43:26;;;;;;;;;;;;;;;11.23;50.84;98671.94;4957641;28;19980;-64
2022/04/27 05:46:06;;;;;;;;;;;;;;;10.98;49.76;98667.34;4992235;28;19956;-62
2022/04/27 05:48:42;;;;;;;;;;;;;;;10.83;51.10;98665.41;4992458;28;19930;-63
2022/04/27 05:51:22;;;;;;;;;;;;;;;10.89;51.63;98670.47;4979992;28;20394;-63
2022/04/27 05:54:08;;;;;;;;;;;;;;;10.86;51.76;98672.84;4982888;28;19930;-63
2022/04/27 05:57:05;;;;;;;;;;;;;;;10.90;51.16;98671.25;4970105;28;19926;-62
2022/04/27 05:59:43;;;;;;;;;;;;;;;10.95;51.84;98678.47;4977247;28;19957;-63
2022/04/27 06:02:32;;;;;;;;;;;;;;;11.06;50.98;98685.38;4982855;28;19941;-62
2022/04/27 06:04:58;;;;;;;;;;;;;;;11.18;51.70;98682.53;4974212;28;19925;-62
2022/04/27 06:07:25;;;;;;;;;;;;;;;11.30;50.45;98683.13;4958161;28;20363;-62
2022/04/27 06:09:51;;;;;;;;;;;;;;;11.45;49.42;98683.19;4954925;28;20477;-61
2022/04/27 06:12:33;;;;;;;;;;;;;;;11.46;49.34;98684.00;4997390;28;19929;-61
2022/04/27 06:15:18;;;;;;;;;;;;;;;11.43;49.43;98680.00;5012139;28;20434;-62
2022/04/27 06:17:43;;;;;;;;;;;;;;;11.52;50.02;98690.91;5047529;28;19935;-61
2022/04/27 06:20:09;;;;;;;;;;;;;;;11.57;49.56;98689.06;5025128;28;20302;-63
2022/04/27 06:22:35;;;;;;;;;;;;;;;11.51;49.57;98681.34;5013517;28;19990;-62
2022/04/27 06:25:05;;;;;;;;;;;;;;;11.60;48.99;98685.09;5031274;28;19936;-62
2022/04/27 06:27:51;;;;;;;;;;;;;;;11.69;48.88;98694.16;5023169;28;20397;-62
2022/04/27 06:30:17;;;;;;;;;;;;;;;11.72;48.36;98687.53;5013555;28;19961;-61
2022/04/27 06:32:45;;;;;;;;;;;;;;;11.97;47.48;98695.59;5011420;28;892514;-62
2022/04/27 06:35:13;;;;;;;;;;;;;;;11.94;47.74;98705.91;5020964;28;19929;-64
2022/04/27 06:37:40;;;;;;;;;;;;;;;11.99;48.51;98692.66;5031465;28;20414;-63
2022/04/27 06:40:06;;;;;;;;;;;;;;;11.93;47.56;98697.16;5033162;28;19925;-63
2022/04/27 06:42:31;;;;;;;;;;;;;;;11.93;47.42;98705.13;5031923;28;20316;-61
2022/04/27 06:45:36;;;;;;;;;;;;;;;12.21;47.29;98708.38;4990934;28;19932;-62
2022/04/27 06:48:20;;;;;;;;;;;;;;;12.31;47.08;98713.69;4982082;28;19930;-62
2022/04/27 06:51:04;;;;;;;;;;;;;;;12.38;47.11;98722.19;4999216;28;19925;-61
2022/04/27 06:53:49;;;;;;;;;;;;;;;12.41;46.66;98715.53;5030463;28;19983;-62
2022/04/27 06:56:33;;;;;;;;;;;;;;;12.82;46.18;98712.84;5031319;28;20044;-62
2022/04/27 06:59:12;;;;;;;;;;;;;;;12.96;44.48;98713.91;5031228;28;19984;-62
2022/04/27 07:01:38;;;;;;;;;;;;;;;12.87;45.53;98712.84;5012820;28;20358;-63
2022/04/27 07:04:09;;;;;;;;;;;;;;;12.76;45.51;98720.03;5012266;28;19929;-62
2022/04/27 07:06:35;;;;;;;;;;;;;;;12.64;45.72;98725.63;5030060;28;19970;-62
2022/04/27 07:09:02;;;;;;;;;;;;;;;12.80;45.16;98718.47;5014108;28;19933;-63
2022/04/27 07:11:27;;;;;;;;;;;;;;;12.86;45.68;98725.38;5029232;28;19925;-63
2022/04/27 07:13:54;;;;;;;;;;;;;;;13.12;45.27;98718.13;5030291;28;19929;-62
2022/04/27 07:16:20;;;;;;;;;;;;;;;13.14;44.83;98723.16;5030131;28;19925;-61
2022/04/27 07:18:46;;;;;;;;;;;;;;;13.02;44.82;98717.34;5031517;28;19936;-61
2022/04/27 07:28:42;;;;;;;;;;;;;;;13.57;43.73;98735.06;5011793;28;19941;-62
2022/04/27 07:31:08;;;;;;;;;;;;;;;13.76;42.59;98724.56;5012270;28;19972;-59
2022/04/27 07:33:34;;;;;;;;;;;;;;;13.81;42.28;98729.88;5010790;28;19976;-62
2022/04/27 07:36:00;;;;;;;;;;;;;;;14.03;42.05;98726.84;5023699;28;19932;-61
2022/04/27 07:38:27;;;;;;;;;;;;;;;13.77;42.34;98725.38;5031682;28;19929;-63
2022/04/27 07:40:52;;;;;;;;;;;;;;;13.86;42.89;98726.41;5029900;28;20382;-60
2022/04/27 07:43:18;;;;;;;;;;;;;;;13.77;42.88;98728.84;5031521;28;19935;-63
2022/04/27 07:45:44;;;;;;;;;;;;;;;13.60;43.04;98731.03;5030397;28;20394;-62
2022/04/27 07:48:10;;;;;;;;;;;;;;;13.47;44.27;98732.44;5029157;28;20306;-63
2022/04/27 07:50:36;;;;;;;;;;;;;;;13.47;43.73;98729.78;5030086;28;20006;-64
2022/04/27 07:53:01;;;;;;;;;;;;;;;13.51;44.24;98732.69;5032378;28;19984;-63
2022/04/27 07:55:27;;;;;;;;;;;;;;;13.37;43.82;98737.78;5010566;28;19925;-64
2022/04/27 07:57:52;;;;;;;;;;;;;;;13.28;43.87;98736.75;5024739;28;20465;-64
2022/04/27 08:00:18;;;;;;;;;;;;;;;13.06;43.95;98737.84;5022010;28;19952;-64
2022/04/27 08:02:44;;;;;;;;;;;;;;;12.95;44.51;98742.38;5015179;28;20024;-63
2022/04/27 08:05:10;;;;;;;;;;;;;;;12.77;44.84;98747.47;5027993;28;20374;-63
2022/04/27 08:07:36;;;;;;;;;;;;;;;12.71;45.31;98739.47;5031413;28;19983;-63
2022/04/27 08:10:08;;;;;;;;;;;;;;;12.48;46.85;98737.34;5029140;28;19933;-61
2022/04/27 08:12:34;;;;;;;;;;;;;;;12.17;47.51;98747.13;5030926;28;19951;-63
2022/04/27 08:14:59;;;;;;;;;;;;;;;12.15;48.60;98746.63;5030111;28;20365;-62
2022/04/27 08:17:25;;;;;;;;;;;;;;;12.29;48.75;98742.38;5030659;28;19998;-63
2022/04/27 08:21:13;;;;;;;;;;;;;;;12.28;48.66;98748.75;5030484;28;19940;-62
2022/04/27 08:22:36;;;;;;;;;;;;;;;12.05;49.50;98750.03;5030848;28;19936;-62
2022/04/27 08:25:01;;;;;;;;;;;;;;;12.12;49.09;98750.59;5030135;28;20024;-62
2022/04/27 08:27:28;;;;;;;;;;;;;;;12.23;49.64;98751.41;5030862;28;19929;-62
2022/04/27 08:29:53;;;;;;;;;;;;;;;12.38;49.36;98750.63;5029434;28;19932;-62
2022/04/27 08:32:19;;;;;;;;;;;;;;;12.50;49.81;98745.88;5029423;28;19937;-62
2022/04/27 08:34:44;;;;;;;;;;;;;;;12.56;49.28;98754.63;5030587;28;20016;-61
2022/04/27 08:37:10;;;;;;;;;;;;;;;12.73;49.38;98755.16;5028859;28;19925;-62
2022/04/27 08:39:35;;;;;;;;;;;;;;;12.84;48.19;98759.41;5028109;28;19961;-62
2022/04/27 08:42:01;;;;;;;;;;;;;;;12.78;49.16;98760.47;5028771;28;19925;-62
2022/04/27 08:44:27;;;;;;;;;;;;;;;12.85;49.62;98762.84;5029856;28;20436;-62
2022/04/27 08:46:52;;;;;;;;;;;;;;;12.87;49.40;98753.56;5029100;28;20328;-63
2022/04/27 08:49:18;;;;;;;;;;;;;;;12.85;48.90;98762.84;5029945;28;19936;-61
2022/04/27 08:51:43;;;;;;;;;;;;;;;12.88;48.55;98767.63;5028745;28;19925;-65
2022/04/27 08:54:09;;;;;;;;;;;;;;;12.93;48.35;98770.31;5027564;28;19982;-60
2022/04/27 08:56:35;;;;;;;;;;;;;;;12.84;48.02;98761.28;5028751;28;19948;-61
2022/04/27 08:59:01;;;;;;;;;;;;;;;12.96;47.45;98749.28;5029200;28;19929;-63
2022/04/27 09:01:27;;;;;;;;;;;;;;;13.12;47.33;98751.94;5029715;28;19932;-64
2022/04/27 09:03:52;;;;;;;;;;;;;;;13.24;47.34;98751.66;5028318;28;19929;-62
2022/04/27 09:06:20;;;;;;;;;;;;;;;13.32;47.09;98756.41;5027174;28;19921;-62
2022/04/27 09:08:49;;;;;;;;;;;;;;;13.37;46.73;98764.41;5029392;28;19929;-65
2022/04/27 09:11:28;;;;;;;;;;;;;;;13.50;46.21;98763.84;5030941;28;19928;-62
2022/04/27 09:13:55;;;;;;;;;;;;;;;13.49;43.92;98767.56;5030422;28;19929;-62
2022/04/27 09:16:22;;;;;;;;;;;;;;;13.51;44.27;98757.44;5031082;28;19932;-63
2022/04/27 09:21:52;;;;;;;;;;;;;;;13.52;44.80;98766.22;5027546;28;19936;-63
2022/04/27 09:24:17;;;;;;;;;;;;;;;13.56;45.10;98765.41;5029308;28;19954;-63
2022/04/27 09:26:43;;;;;;;;;;;;;;;13.50;45.24;98761.19;5029167;28;20352;-63
2022/04/27 09:29:09;;;;;;;;;;;;;;;13.40;43.71;98756.66;5030552;28;20381;-64
2022/04/27 09:31:37;;;;;;;;;;;;;;;13.49;44.54;98758.78;5028224;28;20386;-63
2022/04/27 09:34:27;;;;;;;;;;;;;;;13.52;45.14;98761.69;5028281;28;19935;-63
2022/04/27 09:36:53;;;;;;;;;;;;;;;13.58;43.47;98767.78;5016434;28;19925;-63
2022/04/27 09:39:23;;;;;;;;;;;;;;;13.66;43.54;98774.44;5014612;28;19929;-64
2022/04/27 09:41:50;;;;;;;;;;;;;;;13.76;43.35;98772.50;5031674;28;20023;-62
2022/04/27 09:44:26;;;;;;;;;;;;;;;13.72;43.97;98770.69;5032585;28;20306;-63
2022/04/27 09:46:51;;;;;;;;;;;;;;;13.72;43.78;98770.69;5030794;28;19964;-63
2022/04/27 09:49:17;;;;;;;;;;;;;;;13.75;43.34;98772.78;5031485;28;20067;-62
2022/04/27 09:51:46;;;;;;;;;;;;;;;13.97;42.99;98775.91;5033174;28;19925;-63
2022/04/27 09:54:12;;;;;;;;;;;;;;;13.89;42.10;98765.03;5033152;28;20214;-60
2022/04/27 09:56:37;;;;;;;;;;;;;;;13.95;41.61;98779.91;5015698;28;19940;-63
2022/04/27 09:59:09;;;;;;;;;;;;;;;13.94;41.43;98773.78;5031858;28;19929;-63
2022/04/27 10:01:35;;;;;;;;;;;;;;;13.84;41.56;98774.59;5032402;28;19925;-62
2022/04/27 10:04:04;;;;;;;;;;;;;;;13.80;42.26;98770.91;5033614;28;20401;-64
2022/04/27 10:06:33;;;;;;;;;;;;;;;13.79;42.80;98777.28;5032538;28;19932;-62
2022/04/27 10:08:59;;;;;;;;;;;;;;;13.90;42.43;98774.59;5032563;28;20394;-61
2022/04/27 10:11:26;;;;;;;;;;;;;;;14.01;41.31;98784.13;5032216;28;20401;-61
2022/04/27 10:13:52;;;;;;;;;;;;;;;14.23;41.44;98779.19;5032557;28;19959;-62
2022/04/27 10:16:17;;;;;;;;;;;;;;;14.23;40.79;98781.06;5014664;28;19929;-63
2022/04/27 10:18:43;;;;;;;;;;;;;;;14.19;41.47;98791.50;5030546;28;20405;-64
2022/04/27 10:21:10;;;;;;;;;;;;;;;14.25;40.86;98771.72;5019437;28;20338;-62
2022/04/27 10:23:43;;;;;;;;;;;;;;;14.26;40.94;98785.84;4980579;28;20430;-65
2022/04/27 10:26:09;;;;;;;;;;;;;;;14.14;40.69;98780.06;5013700;28;19925;-65
2022/04/27 10:28:42;;;;;;;;;;;;;;;14.07;41.29;98783.81;5012484;28;20020;-64
2022/04/27 10:31:08;;;;;;;;;;;;;;;13.89;42.51;98791.66;5010346;28;20382;-66
2022/04/27 10:33:48;;;;;;;;;;;;;;;13.53;44.03;98797.91;5012353;28;19944;-61
2022/04/27 10:36:29;;;;;;;;;;;;;;;13.36;44.30;98805.41;5028670;28;20020;-61
2022/04/27 10:39:13;;;;;;;;;;;;;;;13.11;44.89;98799.00;5025935;28;20306;-63
2022/04/27 10:41:39;;;;;;;;;;;;;;;13.05;45.35;98807.28;5022248;28;19976;-61
2022/04/27 10:44:04;;;;;;;;;;;;;;;13.12;45.33;98797.16;5031862;28;20397;-62
2022/04/27 10:46:38;;;;;;;;;;;;;;;12.93;46.00;98807.53;5029089;28;20012;-61
2022/04/27 10:49:19;;;;;;;;;;;;;;;12.78;46.08;98812.88;4995789;28;19929;-62
2022/04/27 10:52:05;;;;;;;;;;;;;;;12.68;46.91;98811.81;5029446;28;19968;-61
2022/04/27 10:54:31;;;;;;;;;;;;;;;12.63;46.79;98824.28;5031561;28;20017;-62
2022/04/27 10:57:15;;;;;;;;;;;;;;;12.57;46.91;98818.16;5031353;28;19925;-62
2022/04/27 10:59:49;;;;;;;;;;;;;;;12.52;47.13;98833.31;5032002;28;20007;-64
2022/04/27 11:02:30;;;;;;;;;;;;;;;12.52;47.05;98825.34;5030760;28;19929;-62
2022/04/27 11:04:56;;;;;;;;;;;;;;;12.49;47.11;98824.00;5045396;28;20422;-63
2022/04/27 11:07:31;;;;;;;;;;;;;;;12.48;47.48;98836.50;5013040;28;20020;-62
2022/04/27 11:10:12;;;;;;;;;;;;;;;12.58;47.24;98833.06;5030388;28;19932;-62
2022/04/27 11:12:38;;;;;;;;;;;;;;;12.60;46.82;98838.13;5032699;28;20019;-61
2022/04/27 11:15:06;;;;;;;;;;;;;;;12.55;46.57;98838.91;5029474;28;20046;-61
2022/04/27 11:17:34;;;;;;;;;;;;;;;12.57;46.43;98833.34;5029736;28;20020;-61
2022/04/27 11:20:03;;;;;;;;;;;;;;;12.58;45.80;98833.06;5030424;28;20379;-62
2022/04/27 11:22:38;;;;;;;;;;;;;;;12.48;46.07;98838.38;5025940;28;19929;-62
2022/04/27 11:25:08;;;;;;;;;;;;;;;12.52;46.54;98833.31;5011324;28;20470;-62
2022/04/27 11:27:35;;;;;;;;;;;;;;;12.61;45.96;98837.03;5025105;28;19936;-65
2022/04/27 11:30:04;;;;;;;;;;;;;;;12.49;45.83;98835.44;5011229;28;19926;-63
2022/04/27 11:32:30;;;;;;;;;;;;;;;12.47;45.58;98836.75;5020195;28;19975;-62
2022/04/27 11:34:56;;;;;;;;;;;;;;;12.44;44.37;98839.94;4994772;28;19976;-63
2022/04/27 11:37:22;;;;;;;;;;;;;;;12.31;44.42;98843.09;5008697;28;20370;-61
2022/04/27 11:39:48;;;;;;;;;;;;;;;12.22;44.77;98848.91;5026620;28;19924;-63
2022/04/27 11:42:16;;;;;;;;;;;;;;;12.18;44.78;98852.38;5029650;28;19939;-62
2022/04/27 11:44:42;;;;;;;;;;;;;;;11.83;46.21;98849.28;5029897;28;19999;-62
2022/04/27 11:47:26;;;;;;;;;;;;;;;11.58;47.35;98860.53;5031689;28;20019;-62
2022/04/27 11:49:52;;;;;;;;;;;;;;;11.45;47.61;98868.16;5036901;28;19965;-62
2022/04/27 11:52:18;;;;;;;;;;;;;;;11.31;47.99;98873.91;5028635;28;19929;-62
2022/04/27 11:55:00;;;;;;;;;;;;;;;11.27;47.98;98887.94;5030693;28;19925;-61
2022/04/27 11:57:25;;;;;;;;;;;;;;;11.32;47.41;98875.53;5031531;28;19978;-63
2022/04/27 12:00:02;;;;;;;;;;;;;;;11.27;48.13;98894.06;5032120;28;20388;-64
2022/04/27 12:02:40;;;;;;;;;;;;;;;11.12;47.37;98902.69;5030673;28;19932;-64
2022/04/27 12:05:07;;;;;;;;;;;;;;;10.84;48.47;98895.00;5031360;28;19925;-64
2022/04/27 12:07:34;;;;;;;;;;;;;;;10.68;49.05;98902.00;5030491;28;19935;-65
2022/04/27 12:10:02;;;;;;;;;;;;;;;10.61;51.19;98899.53;5031041;28;20305;-64
2022/04/27 12:12:31;;;;;;;;;;;;;;;10.47;51.88;98906.31;4995896;28;19929;-64
2022/04/27 12:14:57;;;;;;;;;;;;;;;10.44;52.24;98902.28;5030496;28;20460;-66
2022/04/27 12:17:42;;;;;;;;;;;;;;;10.52;52.34;98901.03;5030737;28;19929;-64
2022/04/27 12:20:09;;;;;;;;;;;;;;;10.63;52.60;98896.66;5031789;28;19957;-64
2022/04/27 12:22:34;;;;;;;;;;;;;;;10.71;51.51;98898.84;5030111;28;19933;-63
2022/04/27 12:25:01;;;;;;;;;;;;;;;10.65;49.88;98898.00;5030118;28;19925;-66
2022/04/27 12:27:27;;;;;;;;;;;;;;;10.62;48.68;98893.19;5030892;28;19929;-64
2022/04/27 12:30:02;;;;;;;;;;;;;;;10.67;48.33;98903.03;5030430;28;19932;-66
2022/04/27 12:32:32;;;;;;;;;;;;;;;10.77;48.31;98897.06;5030174;28;19990;-67
2022/04/27 12:37:53;;;;;;;;;;;;;;;10.89;48.44;98895.06;5031077;28;19929;-64
2022/04/27 12:40:18;;;;;;;;;;;;;;;11.08;48.18;98892.81;5031045;28;19929;-66
2022/04/27 12:43:04;;;;;;;;;;;;;;;11.29;47.73;98899.09;5030681;28;20444;-64
2022/04/27 12:45:32;;;;;;;;;;;;;;;11.34;45.81;98897.28;5027650;28;19929;-66
2022/04/27 12:47:57;;;;;;;;;;;;;;;11.35;44.10;98892.75;5024582;28;19982;-66
2022/04/27 12:50:23;;;;;;;;;;;;;;;11.27;40.79;98903.88;5030379;28;19928;-68
2022/04/27 12:52:49;;;;;;;;;;;;;;;11.07;41.53;98907.16;5018901;28;19929;-64
2022/04/27 12:55:15;;;;;;;;;;;;;;;11.01;41.36;98910.81;5011726;28;19925;-65
2022/04/27 12:57:48;;;;;;;;;;;;;;;10.85;40.63;98913.31;5011876;28;19983;-65
2022/04/27 13:00:14;;;;;;;;;;;;;;;10.88;41.10;98912.00;5011309;28;20414;-63
2022/04/27 13:02:40;;;;;;;;;;;;;;;10.81;42.14;98916.72;5010057;28;20185;-64
2022/04/27 13:05:08;;;;;;;;;;;;;;;10.75;42.14;98915.84;5011568;28;19948;-66
2022/04/27 13:07:33;;;;;;;;;;;;;;;10.76;41.25;98916.66;5011516;28;19929;-64
2022/04/27 13:12:43;;;;;;;;;;;;;;;10.74;41.64;98924.06;5015212;28;19936;-66
2022/04/27 13:15:09;;;;;;;;;;;;;;;10.78;41.77;98927.81;5029359;28;19925;-65
2022/04/27 13:17:35;;;;;;;;;;;;;;;10.77;41.73;98929.66;5033284;28;19952;-64
2022/04/27 13:20:02;;;;;;;;;;;;;;;10.89;43.56;98948.09;5033219;28;20404;-63
2022/04/27 13:22:29;;;;;;;;;;;;;;;11.09;42.57;98934.22;5034520;28;20386;-65
2022/04/27 13:24:54;;;;;;;;;;;;;;;11.10;41.99;98936.63;5034982;28;20003;-65
2022/04/27 13:27:22;;;;;;;;;;;;;;;11.17;41.44;98931.09;5033265;28;19929;-64
2022/04/27 13:29:47;;;;;;;;;;;;;;;11.04;42.33;98940.28;5035244;28;20300;-62
2022/04/27 13:32:13;;;;;;;;;;;;;;;11.05;42.28;98941.88;5033903;28;19933;-63